Airports

 

 

Airport Name Latest METAR Visual Conditions
Guam International Airport (GUM) PGUM 210454Z 22011KT 10SM FEW026 SCT050 BKN060 31/24 A2979 RMK AO2 RAB10E18 SLP079 P0000 T03110239 VFR
Daniel K Inouye International Airport (HNL) PHNL 210453Z 03007KT 10SM FEW024 SCT043 BKN060 28/21 A3000 RMK AO2 RAE00B17E34 SLP157 SHRA DSNT NW P0000 T02780206 VFR
Hilo International Airport (ITO) PHTO 210453Z 13006KT 10SM FEW018 SCT025 BKN060 26/21 A3003 RMK AO2 SLP167 T02560206 VFR
Ellison Onizuka Kona International Airport at Keahole (Kona) (KOA) PHKO 210453Z 20005KT 10SM SCT040 BKN080 27/22 A2999 RMK AO2 SLP155 T02670222 VFR
Lihue Airport (LIH) PHLI 210453Z 29005KT 10SM OVC041 25/21 A3002 RMK AO2 SLP162 T02500211 VFR
Kahului Airport (Maui) (OGG) PHOG 210454Z 32004KT 10SM FEW030 SCT060 28/19 A2998 RMK AO2 SLP157 T02780194 VFR